createdAt,value
2022-11-05T00:03:25.417Z,10.40
2022-11-05T00:07:59.611Z,10.40
2022-11-05T00:12:26.522Z,10.50
2022-11-05T00:16:46.770Z,10.50
2022-11-05T00:20:48.800Z,10.50
2022-11-05T00:25:09.271Z,10.50
2022-11-05T00:29:11.089Z,10.50
2022-11-05T00:33:13.051Z,10.50
2022-11-05T00:37:16.063Z,10.50
2022-11-05T00:41:17.887Z,10.50
2022-11-05T00:45:20.196Z,10.50
2022-11-05T00:49:30.653Z,10.50
2022-11-05T00:53:32.727Z,10.50
2022-11-05T00:57:34.528Z,10.50
2022-11-05T01:01:36.520Z,10.60
2022-11-05T01:05:42.824Z,10.50
2022-11-05T01:09:44.587Z,10.50
2022-11-05T01:13:46.403Z,10.50
2022-11-05T01:17:48.294Z,10.50
2022-11-05T01:21:50.143Z,10.50
2022-11-05T01:25:52.016Z,10.40
2022-11-05T01:29:53.866Z,10.50
2022-11-05T01:33:55.674Z,10.50
2022-11-05T01:37:57.515Z,10.50
2022-11-05T01:41:59.560Z,10.50
2022-11-05T01:46:01.443Z,10.50
2022-11-05T01:50:29.207Z,10.40
2022-11-05T01:54:31.848Z,10.40
2022-11-05T01:58:54.446Z,10.30
2022-11-05T02:02:56.324Z,10.30
2022-11-05T02:06:58.184Z,10.30
2022-11-05T02:11:00.169Z,10.30
2022-11-05T02:15:01.961Z,10.30
2022-11-05T02:19:40.558Z,10.20
2022-11-05T02:24:17.506Z,10.30
2022-11-05T02:29:04.091Z,10.30
2022-11-05T02:33:26.825Z,10.30
2022-11-05T02:37:52.531Z,10.30
2022-11-05T02:42:24.601Z,10.30
2022-11-05T02:46:56.818Z,10.40
2022-11-05T02:51:07.449Z,10.40
2022-11-05T02:55:18.127Z,10.40
2022-11-05T02:59:19.995Z,10.40
2022-11-05T03:03:43.297Z,10.40
2022-11-05T03:07:51.280Z,10.40
2022-11-05T03:12:21.582Z,10.40
2022-11-05T03:16:43.417Z,10.40
2022-11-05T03:21:19.563Z,10.40
2022-11-05T03:25:22.989Z,10.40
2022-11-05T03:29:27.396Z,10.40
2022-11-05T03:33:30.118Z,10.40
2022-11-05T03:37:34.322Z,10.40
2022-11-05T03:41:36.173Z,10.40
2022-11-05T03:45:42.025Z,10.30
2022-11-05T03:50:15.306Z,10.40
2022-11-05T03:54:17.158Z,10.40
2022-11-05T03:58:20.623Z,10.40
2022-11-05T04:02:24.101Z,10.50
2022-11-05T04:06:44.962Z,10.50
2022-11-05T04:11:05.564Z,10.40
2022-11-05T04:15:08.417Z,10.50
2022-11-05T04:19:10.146Z,10.40
2022-11-05T04:23:30.144Z,10.40
2022-11-05T04:27:31.938Z,10.40
2022-11-05T04:31:33.744Z,10.40
2022-11-05T04:35:37.484Z,10.30
2022-11-05T04:39:39.263Z,10.30
2022-11-05T04:43:41.171Z,10.30
2022-11-05T04:47:43.072Z,10.30
2022-11-05T04:51:44.929Z,10.30
2022-11-05T04:55:46.838Z,10.40
2022-11-05T04:59:49.544Z,10.30
2022-11-05T05:03:51.979Z,10.30
2022-11-05T05:07:53.768Z,10.30
2022-11-05T05:11:55.616Z,10.30
2022-11-05T05:15:57.441Z,10.30
2022-11-05T05:20:17.478Z,10.40
2022-11-05T05:24:21.252Z,10.40
2022-11-05T05:28:23.030Z,10.30
2022-11-05T05:32:25.426Z,10.30
2022-11-05T05:36:27.238Z,10.30
2022-11-05T05:40:29.142Z,10.30
2022-11-05T05:44:30.944Z,10.30
2022-11-05T05:48:32.890Z,10.30
2022-11-05T05:52:34.803Z,10.30
2022-11-05T05:56:36.800Z,10.30
2022-11-05T06:00:38.587Z,10.30
2022-11-05T06:04:40.385Z,10.30
2022-11-05T06:08:45.429Z,10.40
2022-11-05T06:12:47.487Z,10.30
2022-11-05T06:16:49.601Z,10.30
2022-11-05T06:20:56.736Z,10.30
2022-11-05T06:25:21.397Z,10.30
2022-11-05T06:29:27.175Z,10.30
2022-11-05T06:34:25.094Z,10.30
2022-11-05T06:55:21.321Z,10.40
2022-11-05T07:05:50.237Z,10.60
2022-11-05T07:10:04.459Z,10.70
2022-11-05T07:14:06.490Z,10.80
2022-11-05T07:25:02.524Z,10.80
2022-11-05T07:36:24.095Z,10.90
2022-11-05T07:57:47.523Z,11.10
2022-11-05T08:01:49.810Z,11.30
2022-11-05T08:06:01.516Z,11.30
2022-11-05T08:10:06.389Z,11.50
2022-11-05T08:14:13.680Z,11.60
2022-11-05T08:19:26.036Z,11.70
2022-11-05T08:23:30.032Z,12.00
2022-11-05T08:27:31.934Z,12.00
2022-11-05T08:31:37.176Z,12.00
2022-11-05T08:35:39.840Z,12.00
2022-11-05T08:39:41.711Z,12.00
2022-11-05T08:43:49.547Z,11.90
2022-11-05T08:47:51.687Z,11.90
2022-11-05T08:51:53.507Z,12.00
2022-11-05T08:55:58.969Z,12.10
2022-11-05T09:00:00.954Z,12.20
2022-11-05T09:05:47.769Z,12.30
2022-11-05T09:10:58.661Z,12.20
2022-11-05T09:26:25.888Z,12.70
2022-11-05T09:30:34.384Z,12.80
2022-11-05T09:40:42.567Z,12.50
2022-11-05T09:44:59.807Z,12.60
2022-11-05T09:49:07.381Z,12.60
2022-11-05T09:53:20.535Z,12.50
2022-11-05T09:57:41.308Z,12.40
2022-11-05T10:02:17.985Z,12.30
2022-11-05T10:06:25.629Z,12.40
2022-11-05T10:10:48.018Z,12.80
2022-11-05T10:15:25.081Z,13.00
2022-11-05T10:19:36.459Z,13.20
2022-11-05T10:23:44.800Z,13.30
2022-11-05T10:27:53.243Z,13.50
2022-11-05T10:31:58.952Z,13.60
2022-11-05T10:36:07.075Z,13.60
2022-11-05T10:41:12.153Z,13.60
2022-11-05T10:45:31.962Z,13.80
2022-11-05T10:49:59.754Z,13.90
2022-11-05T10:54:12.171Z,14.00
2022-11-05T10:58:33.438Z,13.80
2022-11-05T11:02:38.378Z,14.00
2022-11-05T11:07:01.146Z,14.00
2022-11-05T11:11:10.803Z,13.90
2022-11-05T11:15:16.724Z,13.50
2022-11-05T11:19:38.076Z,13.30
2022-11-05T11:23:51.966Z,13.30
2022-11-05T11:28:03.348Z,13.40
2022-11-05T11:32:12.992Z,13.60
2022-11-05T11:36:22.360Z,13.90
2022-11-05T11:40:43.197Z,13.70
2022-11-05T11:45:13.597Z,13.60
2022-11-05T11:52:24.981Z,13.50
2022-11-05T11:55:31.378Z,13.50
2022-11-05T12:00:12.892Z,13.60
2022-11-05T12:04:56.578Z,13.40
2022-11-05T12:26:23.340Z,14.20
2022-11-05T12:30:25.463Z,14.40
2022-11-05T12:35:08.045Z,14.40
2022-11-05T12:39:59.516Z,14.10
2022-11-05T12:44:42.904Z,13.70
2022-11-05T12:49:41.015Z,13.50
2022-11-05T13:00:25.058Z,13.60
2022-11-05T13:05:34.971Z,13.90
2022-11-05T13:55:17.087Z,14.50
2022-11-05T14:17:27.649Z,13.40
2022-11-05T16:21:25.062Z,10.10
2022-11-05T17:22:03.583Z,9.00
2022-11-05T17:27:27.388Z,9.00
2022-11-05T20:44:46.366Z,6.90
2022-11-05T21:04:55.510Z,6.70
2022-11-05T21:34:53.376Z,6.50
2022-11-05T21:38:56.099Z,6.30
2022-11-05T21:42:58.121Z,6.30
2022-11-05T21:47:00.000Z,6.20
2022-11-05T21:51:20.618Z,6.10
2022-11-05T21:55:43.067Z,6.00
2022-11-05T21:59:48.447Z,5.90
2022-11-05T22:03:50.827Z,5.90
2022-11-05T22:07:52.722Z,5.80
2022-11-05T22:11:58.369Z,5.80
2022-11-05T22:21:00.573Z,5.60
2022-11-05T23:23:35.486Z,5.00
2022-11-05T23:27:17.598Z,4.90
2022-11-05T23:31:40.069Z,4.80
2022-11-05T23:36:14.040Z,4.80
2022-11-05T23:40:30.212Z,4.80
2022-11-05T23:44:53.353Z,4.70
2022-11-05T23:49:13.342Z,4.70
2022-11-05T23:53:20.166Z,4.70
2022-11-05T23:57:30.940Z,4.60
